Terminal Aerodrome Forecast
Issued by NWS Cleveland, OH

Home | Current Version | Previous Version | Graphics & Text | Print | Product List | Glossary On
Versions: 1 2 3 4 5 6 7 8 9 10 11 12 13 14 15 16 17 18 19 20 21 22 23 24 25 26 27 28 29 30 31 32 33 34
898
FTUS41 KCLE 181535 AAA
TAFTOL
TAF AMD
KTOL 181535Z 1816/1912 35004KT P6SM VCSH SCT009 BKN100
      TEMPO 1816/1818 BKN009
     FM182200 03008KT P6SM OVC070=

USA.gov is the U.S. government's official web portal to all federal, state and local government web resources and services.